createdAt,value
2023-01-30T00:01:36.362Z,39.80
2023-01-30T00:04:03.726Z,45.05
2023-01-30T00:06:32.748Z,46.13
2023-01-30T00:08:59.980Z,50.55
2023-01-30T00:11:30.290Z,47.13
2023-01-30T00:13:57.764Z,45.05
2023-01-30T00:16:25.369Z,46.42
2023-01-30T00:18:52.752Z,42.33
2023-01-30T00:21:20.085Z,45.53
2023-01-30T00:23:48.847Z,47.47
2023-01-30T00:26:16.115Z,56.30
2023-01-30T00:28:43.581Z,50.35
2023-01-30T00:31:11.059Z,48.90
2023-01-30T00:33:39.588Z,50.70
2023-01-30T00:36:07.746Z,49.23
2023-01-30T00:38:35.252Z,53.63
2023-01-30T00:41:04.241Z,48.90
2023-01-30T00:43:50.050Z,50.47
2023-01-30T00:46:43.393Z,45.95
2023-01-30T00:49:11.023Z,40.87
2023-01-30T00:51:38.522Z,47.10
2023-01-30T00:54:05.849Z,42.03
2023-01-30T00:56:34.634Z,37.40
2023-01-30T00:59:02.259Z,36.05
2023-01-30T01:01:29.619Z,33.23
2023-01-30T01:03:57.174Z,36.63
2023-01-30T01:06:24.753Z,34.88
2023-01-30T01:08:52.001Z,35.28
2023-01-30T01:11:25.714Z,39.25
2023-01-30T01:13:55.869Z,37.63
2023-01-30T01:16:23.816Z,34.38
2023-01-30T01:18:51.971Z,33.55
2023-01-30T01:21:20.429Z,30.38
2023-01-30T01:23:50.610Z,32.92
2023-01-30T01:26:18.096Z,39.70
2023-01-30T01:28:47.277Z,43.58
2023-01-30T01:31:17.613Z,52.10
2023-01-30T01:33:45.148Z,47.45
2023-01-30T01:36:20.086Z,55.28
2023-01-30T01:38:56.911Z,50.60
2023-01-30T01:41:24.371Z,48.83
2023-01-30T01:44:04.963Z,58.50
2023-01-30T01:46:37.233Z,59.95
2023-01-30T01:49:12.682Z,67.82
2023-01-30T01:51:43.195Z,61.67
2023-01-30T01:54:16.271Z,47.65
2023-01-30T01:56:45.911Z,46.95
2023-01-30T01:59:20.769Z,46.92
2023-01-30T02:01:52.174Z,33.08
2023-01-30T02:04:39.571Z,34.27
2023-01-30T02:07:07.649Z,31.45
2023-01-30T02:09:35.332Z,33.33
2023-01-30T02:12:04.836Z,28.30
2023-01-30T02:14:34.238Z,30.27
2023-01-30T02:17:03.106Z,30.90
2023-01-30T02:19:39.359Z,31.17
2023-01-30T02:22:42.737Z,30.95
2023-01-30T02:25:52.049Z,30.38
2023-01-30T02:28:48.025Z,31.27
2023-01-30T02:31:36.686Z,32.10
2023-01-30T02:34:20.517Z,32.88
2023-01-30T02:36:57.549Z,29.27
2023-01-30T02:39:38.137Z,29.50
2023-01-30T02:42:12.146Z,26.55
2023-01-30T02:44:50.432Z,26.30
2023-01-30T02:47:24.577Z,31.55
2023-01-30T02:49:57.343Z,28.67
2023-01-30T02:52:25.707Z,25.92
2023-01-30T02:54:53.124Z,27.73
2023-01-30T02:57:21.594Z,30.17
2023-01-30T02:59:51.829Z,26.48
2023-01-30T03:02:42.429Z,28.73
2023-01-30T03:05:27.402Z,24.80
2023-01-30T03:08:04.933Z,28.63
2023-01-30T03:10:38.527Z,31.80
2023-01-30T03:13:12.324Z,29.40
2023-01-30T03:15:43.097Z,29.67
2023-01-30T03:18:12.190Z,26.00
2023-01-30T03:20:41.381Z,28.27
2023-01-30T03:23:09.612Z,27.57
2023-01-30T03:25:39.535Z,23.85
2023-01-30T03:28:08.431Z,27.45
2023-01-30T03:30:36.019Z,24.15
2023-01-30T03:33:03.442Z,23.45
2023-01-30T03:35:32.631Z,25.67
2023-01-30T03:37:59.910Z,25.67
2023-01-30T03:40:27.569Z,23.80
2023-01-30T03:42:55.091Z,26.58
2023-01-30T03:45:22.405Z,24.58
2023-01-30T03:47:49.967Z,26.23
2023-01-30T03:50:17.622Z,26.38
2023-01-30T03:52:46.812Z,26.17
2023-01-30T03:55:14.371Z,29.35
2023-01-30T03:57:41.662Z,26.67
2023-01-30T04:00:10.367Z,25.00
2023-01-30T04:02:38.826Z,28.15
2023-01-30T04:05:06.665Z,26.42
2023-01-30T04:07:34.175Z,26.48
2023-01-30T04:10:02.969Z,24.40
2023-01-30T04:12:30.255Z,21.77
2023-01-30T04:14:57.817Z,27.02
2023-01-30T04:17:25.359Z,29.77
2023-01-30T04:19:52.761Z,24.73
2023-01-30T04:22:20.212Z,31.38
2023-01-30T04:24:47.445Z,27.57
2023-01-30T04:27:16.315Z,29.48
2023-01-30T04:29:43.738Z,27.02
2023-01-30T04:32:10.973Z,25.75
2023-01-30T04:34:38.346Z,27.35
2023-01-30T04:37:05.514Z,28.53
2023-01-30T04:39:33.301Z,27.98
2023-01-30T04:42:00.700Z,23.50
2023-01-30T04:44:29.345Z,29.90
2023-01-30T04:46:57.011Z,31.75
2023-01-30T04:49:24.605Z,28.13
2023-01-30T04:51:51.971Z,33.28
2023-01-30T04:54:19.327Z,26.65
2023-01-30T04:56:46.622Z,27.58
2023-01-30T04:59:13.985Z,28.67
2023-01-30T05:01:43.128Z,27.27
2023-01-30T05:04:10.789Z,28.48
2023-01-30T05:06:38.283Z,25.85
2023-01-30T05:09:06.324Z,30.73
2023-01-30T05:11:33.950Z,24.73
2023-01-30T05:14:01.441Z,29.80
2023-01-30T05:16:29.923Z,28.00
2023-01-30T05:18:58.555Z,28.60
2023-01-30T05:21:30.783Z,23.27
2023-01-30T05:23:58.326Z,24.98
2023-01-30T05:26:26.341Z,25.50
2023-01-30T05:28:55.334Z,24.13
2023-01-30T05:31:23.092Z,25.50
2023-01-30T05:33:52.544Z,24.58
2023-01-30T05:36:23.705Z,25.00
2023-01-30T05:38:51.151Z,24.93
2023-01-30T05:41:19.322Z,23.83
2023-01-30T05:43:50.492Z,24.98
2023-01-30T05:46:18.197Z,26.23
2023-01-30T05:48:45.896Z,28.17
2023-01-30T05:51:19.051Z,25.50
2023-01-30T05:53:48.085Z,24.27
2023-01-30T05:56:15.996Z,24.65
2023-01-30T05:58:43.750Z,30.25
2023-01-30T06:01:13.041Z,29.40
2023-01-30T06:03:40.703Z,29.33
2023-01-30T06:06:08.313Z,31.48
2023-01-30T06:08:36.120Z,34.85
2023-01-30T06:11:08.338Z,40.72
2023-01-30T06:13:35.876Z,44.35
2023-01-30T06:16:07.108Z,45.60
2023-01-30T06:18:34.619Z,36.17
2023-01-30T06:21:03.924Z,36.10
2023-01-30T06:23:35.227Z,35.35
2023-01-30T06:26:06.264Z,33.85
2023-01-30T06:28:35.816Z,33.07
2023-01-30T06:31:03.477Z,31.52
2023-01-30T06:33:30.814Z,30.10
2023-01-30T06:35:59.603Z,30.17
2023-01-30T06:38:27.135Z,29.90
2023-01-30T06:40:54.422Z,31.93
2023-01-30T06:43:23.357Z,38.28
2023-01-30T06:45:50.895Z,38.05
2023-01-30T06:48:18.636Z,34.97
2023-01-30T06:50:46.741Z,36.70
2023-01-30T06:53:14.503Z,42.53
2023-01-30T06:55:41.897Z,43.53
2023-01-30T06:58:10.911Z,41.60
2023-01-30T07:00:40.846Z,35.75
2023-01-30T07:03:11.153Z,38.22
2023-01-30T07:05:39.385Z,40.27
2023-01-30T07:08:07.275Z,38.13
2023-01-30T07:10:36.069Z,37.47
2023-01-30T07:13:03.929Z,36.22
2023-01-30T07:15:31.559Z,34.65
2023-01-30T07:18:00.514Z,37.20
2023-01-30T07:20:30.126Z,31.50
2023-01-30T07:22:58.130Z,36.35
2023-01-30T07:25:29.688Z,30.95
2023-01-30T07:27:58.753Z,33.88
2023-01-30T07:30:27.531Z,34.03
2023-01-30T07:32:57.939Z,29.38
2023-01-30T07:35:28.091Z,45.30
2023-01-30T07:37:55.691Z,48.55
2023-01-30T07:40:23.853Z,40.25
2023-01-30T07:42:58.760Z,30.17
2023-01-30T07:45:26.367Z,27.77
2023-01-30T07:47:54.461Z,26.02
2023-01-30T07:50:21.679Z,26.48
2023-01-30T07:52:50.314Z,24.00
2023-01-30T07:55:17.909Z,23.43
2023-01-30T07:57:45.714Z,27.20
2023-01-30T08:00:14.330Z,28.45
2023-01-30T08:02:41.764Z,26.60
2023-01-30T08:05:09.838Z,24.85
2023-01-30T08:07:37.166Z,18.73
2023-01-30T08:10:07.131Z,22.67
2023-01-30T08:12:34.597Z,22.10
2023-01-30T08:15:01.869Z,26.73
2023-01-30T08:17:29.423Z,24.73
2023-01-30T08:19:56.682Z,27.83
2023-01-30T08:22:24.117Z,27.20
2023-01-30T08:24:51.703Z,23.80
2023-01-30T08:27:20.463Z,24.52
2023-01-30T08:29:47.785Z,24.33
2023-01-30T08:32:15.968Z,26.80
2023-01-30T08:34:43.531Z,24.35
2023-01-30T08:37:10.748Z,22.02
2023-01-30T08:39:37.983Z,25.35
2023-01-30T08:42:05.492Z,19.40
2023-01-30T08:44:34.308Z,26.17
2023-01-30T08:47:01.649Z,21.50
2023-01-30T08:49:28.913Z,26.52
2023-01-30T08:51:56.394Z,24.20
2023-01-30T08:54:25.591Z,22.70
2023-01-30T08:56:53.303Z,25.70
2023-01-30T08:59:20.701Z,24.98
2023-01-30T09:01:49.573Z,23.23
2023-01-30T09:04:16.886Z,24.88
2023-01-30T09:06:44.274Z,26.20
2023-01-30T09:09:12.043Z,23.30
2023-01-30T09:11:39.498Z,20.63
2023-01-30T09:14:06.663Z,20.17
2023-01-30T09:16:33.938Z,21.58
2023-01-30T09:19:02.588Z,20.70
2023-01-30T09:21:32.104Z,21.27
2023-01-30T09:23:59.415Z,22.80
2023-01-30T09:26:26.654Z,19.42
2023-01-30T09:28:53.979Z,20.92
2023-01-30T09:31:21.466Z,21.48
2023-01-30T09:33:49.193Z,21.95
2023-01-30T09:36:17.854Z,20.45
2023-01-30T09:38:45.085Z,21.15
2023-01-30T09:41:41.263Z,23.30
2023-01-30T09:44:34.952Z,20.27
2023-01-30T09:47:09.933Z,18.00
2023-01-30T09:49:46.141Z,20.60
2023-01-30T09:52:27.227Z,22.17
2023-01-30T09:55:02.117Z,23.58
2023-01-30T09:57:29.860Z,23.15
2023-01-30T10:00:02.827Z,24.83
2023-01-30T10:02:42.427Z,23.35
2023-01-30T10:05:10.455Z,22.15
2023-01-30T10:08:01.289Z,26.58
2023-01-30T10:10:55.054Z,25.75
2023-01-30T10:13:50.666Z,23.63
2023-01-30T10:16:21.410Z,21.73
2023-01-30T10:19:20.518Z,23.42
2023-01-30T10:21:57.618Z,20.50
2023-01-30T10:24:49.074Z,25.45
2023-01-30T10:27:17.737Z,24.52
2023-01-30T10:29:48.047Z,22.50
2023-01-30T10:32:20.287Z,22.23
2023-01-30T10:34:52.105Z,22.55
2023-01-30T10:37:26.666Z,23.02
2023-01-30T10:40:03.268Z,24.88
2023-01-30T10:42:39.456Z,21.30
2023-01-30T10:45:13.778Z,20.65
2023-01-30T10:47:53.367Z,22.23
2023-01-30T10:50:26.230Z,22.70
2023-01-30T10:53:00.227Z,21.95
2023-01-30T10:55:38.117Z,18.60
2023-01-30T10:58:18.388Z,20.50
2023-01-30T11:00:52.367Z,21.90
2023-01-30T11:03:28.625Z,21.90
2023-01-30T11:06:01.039Z,20.57
2023-01-30T11:08:30.181Z,19.23
2023-01-30T11:10:59.863Z,22.83
2023-01-30T11:13:30.683Z,20.58
2023-01-30T11:16:00.158Z,19.63
2023-01-30T11:19:17.304Z,17.35
2023-01-30T11:21:23.444Z,19.93
2023-01-30T11:23:54.651Z,21.60
2023-01-30T11:26:32.065Z,17.67
2023-01-30T11:29:16.883Z,119.55
2023-01-30T11:31:49.889Z,26.17
2023-01-30T11:34:19.136Z,24.73
2023-01-30T11:36:49.971Z,21.15
2023-01-30T11:39:23.456Z,17.23
2023-01-30T11:42:03.667Z,21.75
2023-01-30T11:44:34.368Z,21.65
2023-01-30T11:47:04.802Z,17.92
2023-01-30T11:49:46.407Z,24.42
2023-01-30T11:52:28.668Z,30.48
2023-01-30T11:55:01.375Z,19.90
2023-01-30T11:57:30.255Z,20.83
2023-01-30T12:00:00.782Z,20.10
2023-01-30T12:02:33.911Z,21.20
2023-01-30T12:05:03.058Z,18.13
2023-01-30T12:07:33.046Z,22.20
2023-01-30T12:10:02.087Z,21.73
2023-01-30T12:12:34.332Z,22.40
2023-01-30T12:15:11.821Z,22.05
2023-01-30T12:17:46.151Z,21.63
2023-01-30T12:20:20.363Z,22.80
2023-01-30T12:22:57.820Z,21.75
2023-01-30T12:25:28.122Z,28.37
2023-01-30T12:28:03.374Z,19.65
2023-01-30T12:30:36.886Z,21.85
2023-01-30T12:33:06.830Z,20.42
2023-01-30T12:35:48.175Z,21.73
2023-01-30T12:38:28.328Z,22.48
2023-01-30T12:41:06.734Z,16.67
2023-01-30T12:43:53.104Z,21.35
2023-01-30T12:46:36.876Z,20.50
2023-01-30T12:49:20.524Z,18.98
2023-01-30T12:52:05.106Z,18.37
2023-01-30T12:54:46.006Z,17.95
2023-01-30T12:57:21.587Z,21.38
2023-01-30T13:00:03.828Z,20.52
2023-01-30T13:02:50.037Z,19.60
2023-01-30T13:05:32.551Z,17.65
2023-01-30T13:08:29.903Z,21.00
2023-01-30T13:11:10.095Z,17.67
2023-01-30T13:13:43.201Z,25.23
2023-01-30T13:16:23.328Z,18.92
2023-01-30T13:18:55.625Z,21.70
2023-01-30T13:21:29.265Z,17.52
2023-01-30T13:24:13.885Z,19.17
2023-01-30T13:26:43.718Z,19.40
2023-01-30T13:29:16.053Z,21.42
2023-01-30T13:31:52.048Z,20.52
2023-01-30T13:34:26.664Z,20.73
2023-01-30T13:36:59.536Z,19.85
2023-01-30T13:39:47.166Z,18.23
2023-01-30T13:42:27.138Z,19.80
2023-01-30T13:44:55.785Z,19.13
2023-01-30T13:47:39.786Z,20.85
2023-01-30T13:50:23.293Z,22.10
2023-01-30T13:52:56.847Z,20.77
2023-01-30T13:55:29.781Z,17.67
2023-01-30T13:58:05.908Z,19.85
2023-01-30T14:00:34.951Z,21.73
2023-01-30T14:03:30.678Z,77.22
2023-01-30T14:06:05.065Z,26.08
2023-01-30T14:08:39.696Z,21.95
2023-01-30T14:11:36.156Z,20.73
2023-01-30T14:14:07.297Z,23.17
2023-01-30T14:16:43.589Z,19.88
2023-01-30T14:19:33.753Z,21.23
2023-01-30T14:22:04.948Z,27.58
2023-01-30T14:24:32.248Z,33.47
2023-01-30T14:27:05.579Z,22.05
2023-01-30T14:29:55.799Z,24.17
2023-01-30T14:32:52.877Z,20.63
2023-01-30T14:35:25.086Z,19.73
2023-01-30T14:38:08.889Z,24.45
2023-01-30T14:40:41.178Z,20.33
2023-01-30T14:43:36.373Z,21.65
2023-01-30T14:46:08.638Z,20.40
2023-01-30T14:48:41.739Z,28.45
2023-01-30T14:51:22.805Z,22.73
2023-01-30T14:53:55.224Z,26.05
2023-01-30T14:56:41.388Z,24.50
2023-01-30T14:59:18.410Z,20.00
2023-01-30T15:02:02.747Z,19.10
2023-01-30T15:04:32.939Z,20.70
2023-01-30T15:07:07.868Z,32.13
2023-01-30T15:09:37.234Z,32.33
2023-01-30T15:12:22.699Z,23.48
2023-01-30T15:14:59.011Z,52.20
2023-01-30T15:17:33.175Z,28.20
2023-01-30T15:20:15.988Z,29.85
2023-01-30T15:23:04.303Z,31.77
2023-01-30T15:25:43.604Z,31.25
2023-01-30T15:28:20.700Z,27.65
2023-01-30T15:30:57.485Z,28.85
2023-01-30T15:33:31.470Z,30.92
2023-01-30T15:36:00.367Z,66.40
2023-01-30T15:38:31.944Z,37.40
2023-01-30T15:41:01.894Z,55.10
2023-01-30T15:43:53.158Z,33.90
2023-01-30T15:46:28.726Z,34.92
2023-01-30T15:49:19.603Z,56.00
2023-01-30T15:51:47.345Z,55.30
2023-01-30T15:54:19.492Z,53.15
2023-01-30T15:56:49.887Z,60.83
2023-01-30T15:59:27.726Z,50.50
2023-01-30T16:02:04.322Z,38.85
2023-01-30T16:04:32.259Z,47.53
2023-01-30T16:06:59.756Z,52.20
2023-01-30T16:09:28.391Z,40.20
2023-01-30T16:11:56.312Z,37.78
2023-01-30T16:14:24.025Z,37.03
2023-01-30T16:16:56.021Z,34.90
2023-01-30T16:19:28.821Z,36.92
2023-01-30T16:21:59.117Z,32.20
2023-01-30T16:24:32.179Z,39.25
2023-01-30T16:27:03.089Z,64.60
2023-01-30T16:29:34.731Z,69.57
2023-01-30T16:32:02.355Z,78.18
2023-01-30T16:34:32.122Z,75.03
2023-01-30T16:37:04.550Z,70.32
2023-01-30T16:39:35.141Z,65.97
2023-01-30T16:42:18.827Z,50.50
2023-01-30T16:44:46.174Z,53.45
2023-01-30T16:47:23.608Z,60.67
2023-01-30T16:49:52.975Z,63.22
2023-01-30T16:52:22.973Z,107.93
2023-01-30T16:54:53.950Z,88.07
2023-01-30T16:57:35.177Z,79.15
2023-01-30T17:00:07.396Z,78.50
2023-01-30T17:02:37.614Z,68.55
2023-01-30T17:05:27.227Z,80.57
2023-01-30T17:08:00.612Z,73.28
2023-01-30T17:11:00.023Z,87.70
2023-01-30T17:13:36.316Z,84.13
2023-01-30T17:16:29.578Z,88.47
2023-01-30T17:18:58.385Z,104.20
2023-01-30T17:21:29.294Z,100.68
2023-01-30T17:24:00.009Z,88.40
2023-01-30T17:26:28.069Z,97.80
2023-01-30T17:28:57.202Z,88.50
2023-01-30T17:31:24.910Z,89.30
2023-01-30T17:33:52.300Z,92.72
2023-01-30T17:36:24.206Z,83.75
2023-01-30T17:38:52.156Z,81.90
2023-01-30T17:41:21.171Z,85.45
2023-01-30T17:43:49.859Z,96.40
2023-01-30T17:46:24.308Z,92.93
2023-01-30T17:48:51.931Z,91.72
2023-01-30T17:51:19.434Z,91.60
2023-01-30T17:53:47.058Z,98.72
2023-01-30T17:56:18.966Z,97.20
2023-01-30T17:58:47.585Z,100.30
2023-01-30T18:01:16.433Z,96.43
2023-01-30T18:03:45.269Z,93.13
2023-01-30T18:06:14.664Z,92.57
2023-01-30T18:08:42.787Z,88.07
2023-01-30T18:11:12.119Z,83.60
2023-01-30T18:13:39.896Z,94.50
2023-01-30T18:16:11.596Z,89.35
2023-01-30T18:18:39.230Z,81.03
2023-01-30T18:21:08.193Z,85.60
2023-01-30T18:23:37.450Z,62.38
2023-01-30T18:26:05.440Z,82.03
2023-01-30T18:28:33.218Z,73.32
2023-01-30T18:31:00.811Z,51.15
2023-01-30T18:33:28.272Z,64.07
2023-01-30T18:35:55.847Z,68.43
2023-01-30T18:38:24.911Z,46.55
2023-01-30T18:40:52.397Z,98.47
2023-01-30T18:43:21.393Z,49.38
2023-01-30T18:45:50.141Z,31.90
2023-01-30T18:48:17.731Z,32.13
2023-01-30T18:50:45.465Z,70.75
2023-01-30T18:53:13.025Z,72.75
2023-01-30T18:55:49.556Z,44.92
2023-01-30T18:58:17.074Z,40.22
2023-01-30T19:00:45.383Z,35.20
2023-01-30T19:03:13.046Z,45.72
2023-01-30T19:05:40.652Z,49.97
2023-01-30T19:08:10.614Z,45.70
2023-01-30T19:10:38.234Z,85.05
2023-01-30T19:13:25.680Z,52.67
2023-01-30T19:15:57.962Z,45.35
2023-01-30T19:18:27.178Z,61.47
2023-01-30T19:20:54.782Z,40.50
2023-01-30T19:23:26.592Z,48.92
2023-01-30T19:25:55.081Z,49.35
2023-01-30T19:28:24.318Z,46.95
2023-01-30T19:30:53.710Z,46.20
2023-01-30T19:33:21.257Z,50.90
2023-01-30T19:35:48.923Z,52.30
2023-01-30T19:38:16.846Z,49.03
2023-01-30T19:40:45.687Z,54.28
2023-01-30T19:43:14.306Z,54.60
2023-01-30T19:45:43.234Z,64.85
2023-01-30T19:48:11.333Z,61.13
2023-01-30T19:50:38.896Z,92.95
2023-01-30T19:53:06.590Z,68.32
2023-01-30T19:55:35.284Z,84.97
2023-01-30T19:58:03.659Z,77.13
2023-01-30T20:00:30.950Z,74.25
2023-01-30T20:03:01.221Z,78.47
2023-01-30T20:05:29.245Z,73.07
2023-01-30T20:07:57.096Z,70.45
2023-01-30T20:10:24.907Z,75.18
2023-01-30T20:12:52.517Z,81.85
2023-01-30T20:15:20.565Z,78.45
2023-01-30T20:17:48.066Z,85.95
2023-01-30T20:20:18.184Z,91.90
2023-01-30T20:22:55.659Z,96.63
2023-01-30T20:25:23.116Z,93.68
2023-01-30T20:27:50.757Z,99.75
2023-01-30T20:30:19.837Z,103.20
2023-01-30T20:32:47.743Z,100.93
2023-01-30T20:35:17.908Z,100.60
2023-01-30T20:37:45.419Z,106.78
2023-01-30T20:40:14.353Z,90.07
2023-01-30T20:42:41.861Z,91.60
2023-01-30T20:45:10.317Z,98.32
2023-01-30T20:47:40.605Z,104.82
2023-01-30T20:50:09.387Z,107.40
2023-01-30T20:52:38.779Z,100.10
2023-01-30T20:55:07.355Z,106.50
2023-01-30T20:57:34.952Z,131.00
2023-01-30T21:00:04.493Z,183.65
2023-01-30T21:02:31.892Z,147.57
2023-01-30T21:04:59.749Z,142.52
2023-01-30T21:07:28.783Z,142.33
2023-01-30T21:09:57.817Z,96.53
2023-01-30T21:12:25.719Z,77.10
2023-01-30T21:14:53.406Z,103.00
2023-01-30T21:17:20.992Z,73.05
2023-01-30T21:19:48.387Z,73.40
2023-01-30T21:22:15.620Z,82.22
2023-01-30T21:24:43.329Z,69.00
2023-01-30T21:27:12.018Z,71.13
2023-01-30T21:29:39.555Z,72.22
2023-01-30T21:32:07.115Z,74.13
2023-01-30T21:34:35.335Z,66.05
2023-01-30T21:37:21.104Z,67.03
2023-01-30T21:40:06.992Z,63.38
2023-01-30T21:42:54.244Z,51.92
2023-01-30T21:45:22.420Z,40.72
2023-01-30T21:47:54.269Z,41.83
2023-01-30T21:50:21.775Z,42.80
2023-01-30T21:52:49.413Z,60.45
2023-01-30T21:55:16.848Z,53.35
2023-01-30T21:57:45.665Z,55.80
2023-01-30T22:00:14.194Z,74.28
2023-01-30T22:02:41.439Z,77.97
2023-01-30T22:05:09.691Z,85.18
2023-01-30T22:07:37.553Z,84.30
2023-01-30T22:10:05.480Z,83.30
2023-01-30T22:12:32.899Z,82.10
2023-01-30T22:15:01.663Z,58.97
2023-01-30T22:17:28.933Z,62.45
2023-01-30T22:19:56.336Z,44.72
2023-01-30T22:22:24.824Z,42.03
2023-01-30T22:24:52.398Z,38.25
2023-01-30T22:27:19.717Z,40.67
2023-01-30T22:29:46.931Z,42.35
2023-01-30T22:32:15.637Z,36.47
2023-01-30T22:34:43.003Z,34.65
2023-01-30T22:37:10.315Z,35.60
2023-01-30T22:39:37.570Z,34.25
2023-01-30T22:42:05.251Z,36.40
2023-01-30T22:44:32.504Z,39.72
2023-01-30T22:47:00.004Z,44.80
2023-01-30T22:49:28.720Z,45.95
2023-01-30T22:51:55.958Z,52.35
2023-01-30T22:54:24.990Z,56.22
2023-01-30T22:56:52.767Z,52.17
2023-01-30T22:59:20.081Z,58.75
2023-01-30T23:01:48.446Z,54.13
2023-01-30T23:04:17.420Z,59.58
2023-01-30T23:06:47.211Z,57.70
2023-01-30T23:09:17.410Z,59.88
2023-01-30T23:12:06.644Z,57.00
2023-01-30T23:14:34.026Z,57.75
2023-01-30T23:17:01.384Z,42.90
2023-01-30T23:19:28.779Z,19.63
2023-01-30T23:21:57.577Z,19.33
2023-01-30T23:24:24.908Z,12.07
2023-01-30T23:26:52.416Z,9.70
2023-01-30T23:29:20.658Z,8.63
2023-01-30T23:31:48.105Z,10.07
2023-01-30T23:34:16.950Z,9.98
2023-01-30T23:36:44.972Z,7.33
2023-01-30T23:39:14.438Z,9.57
2023-01-30T23:41:42.682Z,8.73
2023-01-30T23:44:10.426Z,8.73
2023-01-30T23:46:39.982Z,8.15
2023-01-30T23:49:08.723Z,8.20
2023-01-30T23:51:37.762Z,34.85
2023-01-30T23:54:06.085Z,38.08
2023-01-30T23:56:36.377Z,38.53
2023-01-30T23:59:04.467Z,40.58
